sensor_id;sensor_type;location;lat;lon;timestamp;P1;durP1;ratioP1;P2;durP2;ratioP2
11616;SDS011;5864;52.998;9.068;2023-05-10T00:00:18;4.23;;;2.40;;
11616;SDS011;5864;52.998;9.068;2023-05-10T00:03:04;3.77;;;2.53;;
11616;SDS011;5864;52.998;9.068;2023-05-10T00:05:49;4.97;;;2.67;;
11616;SDS011;5864;52.998;9.068;2023-05-10T00:08:35;3.77;;;2.50;;
11616;SDS011;5864;52.998;9.068;2023-05-10T00:11:21;4.27;;;2.40;;
11616;SDS011;5864;52.998;9.068;2023-05-10T00:14:06;5.33;;;2.90;;
11616;SDS011;5864;52.998;9.068;2023-05-10T00:16:53;4.33;;;2.30;;
11616;SDS011;5864;52.998;9.068;2023-05-10T00:19:39;3.33;;;2.70;;
11616;SDS011;5864;52.998;9.068;2023-05-10T00:22:25;3.77;;;3.00;;
11616;SDS011;5864;52.998;9.068;2023-05-10T00:25:11;3.20;;;2.60;;
11616;SDS011;5864;52.998;9.068;2023-05-10T00:27:57;6.57;;;3.20;;
11616;SDS011;5864;52.998;9.068;2023-05-10T00:30:44;5.53;;;2.73;;
11616;SDS011;5864;52.998;9.068;2023-05-10T00:33:31;4.33;;;2.70;;
11616;SDS011;5864;52.998;9.068;2023-05-10T00:36:17;3.30;;;2.33;;
11616;SDS011;5864;52.998;9.068;2023-05-10T00:39:03;3.53;;;2.60;;
11616;SDS011;5864;52.998;9.068;2023-05-10T00:41:48;6.67;;;2.70;;
11616;SDS011;5864;52.998;9.068;2023-05-10T00:44:34;4.00;;;2.53;;
11616;SDS011;5864;52.998;9.068;2023-05-10T00:47:19;4.33;;;2.70;;
11616;SDS011;5864;52.998;9.068;2023-05-10T00:50:07;2.77;;;2.37;;
11616;SDS011;5864;52.998;9.068;2023-05-10T00:52:53;5.33;;;3.20;;
11616;SDS011;5864;52.998;9.068;2023-05-10T00:55:39;6.50;;;2.77;;
11616;SDS011;5864;52.998;9.068;2023-05-10T00:58:25;4.27;;;2.80;;
11616;SDS011;5864;52.998;9.068;2023-05-10T01:01:12;3.07;;;2.70;;
11616;SDS011;5864;52.998;9.068;2023-05-10T01:03:58;4.57;;;2.77;;
11616;SDS011;5864;52.998;9.068;2023-05-10T01:06:45;3.77;;;2.80;;
11616;SDS011;5864;52.998;9.068;2023-05-10T01:09:31;5.87;;;2.97;;
11616;SDS011;5864;52.998;9.068;2023-05-10T01:12:17;4.13;;;2.80;;
11616;SDS011;5864;52.998;9.068;2023-05-10T01:15:04;2.87;;;2.63;;
11616;SDS011;5864;52.998;9.068;2023-05-10T01:17:51;4.77;;;2.70;;
11616;SDS011;5864;52.998;9.068;2023-05-10T01:20:39;5.20;;;3.47;;
11616;SDS011;5864;52.998;9.068;2023-05-10T01:27:02;3.97;;;2.60;;
11616;SDS011;5864;52.998;9.068;2023-05-10T01:30:18;3.70;;;3.00;;
11616;SDS011;5864;52.998;9.068;2023-05-10T01:33:21;4.03;;;2.93;;
11616;SDS011;5864;52.998;9.068;2023-05-10T01:36:13;5.00;;;2.90;;
11616;SDS011;5864;52.998;9.068;2023-05-10T01:39:11;4.20;;;3.10;;
11616;SDS011;5864;52.998;9.068;2023-05-10T01:42:01;3.50;;;2.90;;
11616;SDS011;5864;52.998;9.068;2023-05-10T01:44:54;4.77;;;3.03;;
11616;SDS011;5864;52.998;9.068;2023-05-10T01:47:46;5.50;;;3.00;;
11616;SDS011;5864;52.998;9.068;2023-05-10T01:50:41;3.70;;;3.00;;
11616;SDS011;5864;52.998;9.068;2023-05-10T01:53:29;4.60;;;2.93;;
11616;SDS011;5864;52.998;9.068;2023-05-10T01:56:17;3.47;;;3.00;;
11616;SDS011;5864;52.998;9.068;2023-05-10T01:59:08;5.57;;;3.10;;
11616;SDS011;5864;52.998;9.068;2023-05-10T02:01:58;4.37;;;3.40;;
11616;SDS011;5864;52.998;9.068;2023-05-10T02:04:46;3.80;;;3.10;;
11616;SDS011;5864;52.998;9.068;2023-05-10T02:07:35;4.53;;;3.20;;
11616;SDS011;5864;52.998;9.068;2023-05-10T02:10:21;4.60;;;2.83;;
11616;SDS011;5864;52.998;9.068;2023-05-10T02:13:07;4.97;;;2.90;;
11616;SDS011;5864;52.998;9.068;2023-05-10T02:15:54;4.73;;;2.80;;
11616;SDS011;5864;52.998;9.068;2023-05-10T02:18:41;5.40;;;3.17;;
11616;SDS011;5864;52.998;9.068;2023-05-10T02:21:26;9.27;;;3.63;;
11616;SDS011;5864;52.998;9.068;2023-05-10T02:24:16;4.40;;;3.50;;
11616;SDS011;5864;52.998;9.068;2023-05-10T02:27:02;4.77;;;2.97;;
11616;SDS011;5864;52.998;9.068;2023-05-10T02:29:49;3.30;;;3.00;;
11616;SDS011;5864;52.998;9.068;2023-05-10T02:32:35;4.30;;;3.37;;
11616;SDS011;5864;52.998;9.068;2023-05-10T02:35:22;4.37;;;3.40;;
11616;SDS011;5864;52.998;9.068;2023-05-10T02:38:08;4.47;;;2.93;;
11616;SDS011;5864;52.998;9.068;2023-05-10T02:40:56;4.77;;;3.70;;
11616;SDS011;5864;52.998;9.068;2023-05-10T02:43:43;5.43;;;4.00;;
11616;SDS011;5864;52.998;9.068;2023-05-10T02:46:30;6.00;;;3.37;;
11616;SDS011;5864;52.998;9.068;2023-05-10T02:49:15;5.57;;;3.20;;
11616;SDS011;5864;52.998;9.068;2023-05-10T02:52:01;4.10;;;3.50;;
11616;SDS011;5864;52.998;9.068;2023-05-10T02:54:54;4.53;;;3.70;;
11616;SDS011;5864;52.998;9.068;2023-05-10T02:57:43;3.90;;;3.27;;
11616;SDS011;5864;52.998;9.068;2023-05-10T03:00:36;5.53;;;3.83;;
11616;SDS011;5864;52.998;9.068;2023-05-10T03:03:21;4.47;;;3.80;;
11616;SDS011;5864;52.998;9.068;2023-05-10T03:06:07;5.20;;;3.43;;
11616;SDS011;5864;52.998;9.068;2023-05-10T03:08:53;6.37;;;3.60;;
11616;SDS011;5864;52.998;9.068;2023-05-10T03:11:41;4.53;;;3.37;;
11616;SDS011;5864;52.998;9.068;2023-05-10T03:14:42;4.07;;;3.33;;
11616;SDS011;5864;52.998;9.068;2023-05-10T03:17:43;4.37;;;3.03;;
11616;SDS011;5864;52.998;9.068;2023-05-10T03:20:34;6.17;;;3.57;;
11616;SDS011;5864;52.998;9.068;2023-05-10T03:23:22;4.17;;;3.50;;
11616;SDS011;5864;52.998;9.068;2023-05-10T03:26:15;8.87;;;4.00;;
11616;SDS011;5864;52.998;9.068;2023-05-10T03:29:09;4.27;;;3.70;;
11616;SDS011;5864;52.998;9.068;2023-05-10T03:31:58;4.10;;;3.70;;
11616;SDS011;5864;52.998;9.068;2023-05-10T03:34:44;6.60;;;3.70;;
11616;SDS011;5864;52.998;9.068;2023-05-10T03:37:30;3.93;;;3.53;;
11616;SDS011;5864;52.998;9.068;2023-05-10T03:40:15;5.10;;;3.80;;
11616;SDS011;5864;52.998;9.068;2023-05-10T03:43:01;5.80;;;3.57;;
11616;SDS011;5864;52.998;9.068;2023-05-10T03:45:47;4.33;;;3.93;;
11616;SDS011;5864;52.998;9.068;2023-05-10T03:48:34;6.03;;;3.93;;
11616;SDS011;5864;52.998;9.068;2023-05-10T03:51:20;5.53;;;4.17;;
11616;SDS011;5864;52.998;9.068;2023-05-10T03:54:06;6.07;;;3.53;;
11616;SDS011;5864;52.998;9.068;2023-05-10T03:56:52;4.63;;;3.93;;
11616;SDS011;5864;52.998;9.068;2023-05-10T03:59:38;4.13;;;3.70;;
11616;SDS011;5864;52.998;9.068;2023-05-10T04:02:23;6.97;;;3.93;;
11616;SDS011;5864;52.998;9.068;2023-05-10T04:05:10;6.80;;;4.03;;
11616;SDS011;5864;52.998;9.068;2023-05-10T04:07:56;5.40;;;3.80;;
11616;SDS011;5864;52.998;9.068;2023-05-10T04:10:43;4.93;;;3.80;;
11616;SDS011;5864;52.998;9.068;2023-05-10T04:13:28;3.93;;;3.53;;
11616;SDS011;5864;52.998;9.068;2023-05-10T04:16:15;6.47;;;4.57;;
11616;SDS011;5864;52.998;9.068;2023-05-10T04:19:00;4.83;;;4.13;;
11616;SDS011;5864;52.998;9.068;2023-05-10T04:21:48;5.63;;;3.53;;
11616;SDS011;5864;52.998;9.068;2023-05-10T04:24:34;5.27;;;4.13;;
11616;SDS011;5864;52.998;9.068;2023-05-10T04:27:19;4.60;;;3.93;;
11616;SDS011;5864;52.998;9.068;2023-05-10T04:30:05;3.90;;;3.53;;
11616;SDS011;5864;52.998;9.068;2023-05-10T04:32:52;5.63;;;4.60;;
11616;SDS011;5864;52.998;9.068;2023-05-10T04:35:37;5.93;;;3.97;;
11616;SDS011;5864;52.998;9.068;2023-05-10T04:38:25;5.60;;;4.63;;
11616;SDS011;5864;52.998;9.068;2023-05-10T04:41:10;4.97;;;3.87;;
11616;SDS011;5864;52.998;9.068;2023-05-10T04:43:57;7.60;;;4.10;;
11616;SDS011;5864;52.998;9.068;2023-05-10T04:46:42;7.10;;;4.57;;
11616;SDS011;5864;52.998;9.068;2023-05-10T04:49:28;7.60;;;4.70;;
11616;SDS011;5864;52.998;9.068;2023-05-10T04:52:13;5.67;;;4.80;;
11616;SDS011;5864;52.998;9.068;2023-05-10T04:55:02;7.97;;;4.10;;
11616;SDS011;5864;52.998;9.068;2023-05-10T04:57:48;5.50;;;4.80;;
11616;SDS011;5864;52.998;9.068;2023-05-10T05:00:34;5.70;;;4.80;;
11616;SDS011;5864;52.998;9.068;2023-05-10T05:03:19;6.90;;;5.13;;
11616;SDS011;5864;52.998;9.068;2023-05-10T05:06:06;7.97;;;5.03;;
11616;SDS011;5864;52.998;9.068;2023-05-10T05:08:51;5.53;;;4.60;;
11616;SDS011;5864;52.998;9.068;2023-05-10T05:11:39;6.13;;;5.23;;
11616;SDS011;5864;52.998;9.068;2023-05-10T05:14:24;7.30;;;5.03;;
11616;SDS011;5864;52.998;9.068;2023-05-10T05:17:11;5.80;;;5.20;;
11616;SDS011;5864;52.998;9.068;2023-05-10T05:19:56;6.40;;;5.27;;
11616;SDS011;5864;52.998;9.068;2023-05-10T05:22:43;6.10;;;5.50;;
11616;SDS011;5864;52.998;9.068;2023-05-10T05:25:28;7.00;;;5.20;;
11616;SDS011;5864;52.998;9.068;2023-05-10T05:28:15;7.97;;;5.13;;
11616;SDS011;5864;52.998;9.068;2023-05-10T05:31:00;7.60;;;5.50;;
11616;SDS011;5864;52.998;9.068;2023-05-10T05:33:46;6.20;;;5.30;;
11616;SDS011;5864;52.998;9.068;2023-05-10T05:36:32;6.00;;;5.50;;
11616;SDS011;5864;52.998;9.068;2023-05-10T05:39:21;5.93;;;5.33;;
11616;SDS011;5864;52.998;9.068;2023-05-10T05:42:07;7.83;;;5.93;;
11616;SDS011;5864;52.998;9.068;2023-05-10T05:44:54;5.97;;;5.37;;
11616;SDS011;5864;52.998;9.068;2023-05-10T05:47:41;7.70;;;6.27;;
11616;SDS011;5864;52.998;9.068;2023-05-10T05:50:26;6.67;;;5.93;;
11616;SDS011;5864;52.998;9.068;2023-05-10T05:53:12;7.40;;;5.93;;
11616;SDS011;5864;52.998;9.068;2023-05-10T05:55:58;6.43;;;5.00;;
11616;SDS011;5864;52.998;9.068;2023-05-10T05:58:44;6.13;;;5.50;;
11616;SDS011;5864;52.998;9.068;2023-05-10T06:01:31;8.23;;;5.47;;
11616;SDS011;5864;52.998;9.068;2023-05-10T06:04:17;6.97;;;5.67;;
11616;SDS011;5864;52.998;9.068;2023-05-10T06:07:03;6.50;;;5.87;;
11616;SDS011;5864;52.998;9.068;2023-05-10T06:09:49;7.27;;;6.57;;
11616;SDS011;5864;52.998;9.068;2023-05-10T06:12:34;6.73;;;5.83;;
11616;SDS011;5864;52.998;9.068;2023-05-10T06:15:20;7.43;;;5.80;;
11616;SDS011;5864;52.998;9.068;2023-05-10T06:18:07;6.90;;;5.40;;
11616;SDS011;5864;52.998;9.068;2023-05-10T06:20:52;6.83;;;6.13;;
11616;SDS011;5864;52.998;9.068;2023-05-10T06:23:38;6.57;;;5.90;;
11616;SDS011;5864;52.998;9.068;2023-05-10T06:26:23;7.20;;;6.47;;
11616;SDS011;5864;52.998;9.068;2023-05-10T06:29:09;6.20;;;5.60;;
11616;SDS011;5864;52.998;9.068;2023-05-10T06:31:55;9.33;;;6.60;;
11616;SDS011;5864;52.998;9.068;2023-05-10T06:34:41;8.73;;;6.40;;
11616;SDS011;5864;52.998;9.068;2023-05-10T06:37:29;6.83;;;6.13;;
11616;SDS011;5864;52.998;9.068;2023-05-10T06:40:14;7.87;;;6.70;;
11616;SDS011;5864;52.998;9.068;2023-05-10T06:43:01;9.60;;;6.67;;
11616;SDS011;5864;52.998;9.068;2023-05-10T06:45:47;10.70;;;6.57;;
11616;SDS011;5864;52.998;9.068;2023-05-10T06:48:33;8.63;;;6.53;;
11616;SDS011;5864;52.998;9.068;2023-05-10T06:51:20;8.67;;;7.03;;
11616;SDS011;5864;52.998;9.068;2023-05-10T06:54:05;10.60;;;7.50;;
11616;SDS011;5864;52.998;9.068;2023-05-10T06:56:52;8.40;;;6.67;;
11616;SDS011;5864;52.998;9.068;2023-05-10T06:59:37;8.30;;;7.40;;
11616;SDS011;5864;52.998;9.068;2023-05-10T07:02:23;10.17;;;7.53;;
11616;SDS011;5864;52.998;9.068;2023-05-10T07:05:08;9.80;;;6.97;;
11616;SDS011;5864;52.998;9.068;2023-05-10T07:07:56;8.20;;;7.40;;
11616;SDS011;5864;52.998;9.068;2023-05-10T07:10:41;10.47;;;7.70;;
11616;SDS011;5864;52.998;9.068;2023-05-10T07:13:27;9.93;;;7.43;;
11616;SDS011;5864;52.998;9.068;2023-05-10T07:16:12;7.63;;;6.93;;
11616;SDS011;5864;52.998;9.068;2023-05-10T07:18:58;9.20;;;7.37;;
11616;SDS011;5864;52.998;9.068;2023-05-10T07:21:43;8.63;;;7.73;;
11616;SDS011;5864;52.998;9.068;2023-05-10T07:24:31;8.63;;;7.17;;
11616;SDS011;5864;52.998;9.068;2023-05-10T07:27:16;8.47;;;7.67;;
11616;SDS011;5864;52.998;9.068;2023-05-10T07:30:02;7.90;;;7.10;;
11616;SDS011;5864;52.998;9.068;2023-05-10T07:32:48;7.80;;;7.00;;
11616;SDS011;5864;52.998;9.068;2023-05-10T07:35:33;10.70;;;7.87;;
11616;SDS011;5864;52.998;9.068;2023-05-10T07:38:19;9.80;;;7.30;;
11616;SDS011;5864;52.998;9.068;2023-05-10T07:41:06;8.03;;;7.27;;
11616;SDS011;5864;52.998;9.068;2023-05-10T07:43:51;9.03;;;7.50;;
11616;SDS011;5864;52.998;9.068;2023-05-10T07:46:37;10.00;;;7.03;;
11616;SDS011;5864;52.998;9.068;2023-05-10T07:49:23;8.27;;;7.33;;
11616;SDS011;5864;52.998;9.068;2023-05-10T07:52:09;8.47;;;7.57;;
11616;SDS011;5864;52.998;9.068;2023-05-10T07:54:54;8.77;;;7.87;;
11616;SDS011;5864;52.998;9.068;2023-05-10T07:57:42;10.63;;;8.40;;
11616;SDS011;5864;52.998;9.068;2023-05-10T08:00:27;10.17;;;7.90;;
11616;SDS011;5864;52.998;9.068;2023-05-10T08:03:14;8.13;;;7.23;;
11616;SDS011;5864;52.998;9.068;2023-05-10T08:05:59;9.63;;;7.60;;
11616;SDS011;5864;52.998;9.068;2023-05-10T08:08:45;8.07;;;7.27;;
11616;SDS011;5864;52.998;9.068;2023-05-10T08:11:33;8.20;;;7.40;;
11616;SDS011;5864;52.998;9.068;2023-05-10T08:14:20;8.23;;;7.13;;
11616;SDS011;5864;52.998;9.068;2023-05-10T08:17:06;7.57;;;6.87;;
11616;SDS011;5864;52.998;9.068;2023-05-10T08:19:51;7.83;;;7.03;;
11616;SDS011;5864;52.998;9.068;2023-05-10T08:22:36;10.20;;;7.40;;
11616;SDS011;5864;52.998;9.068;2023-05-10T08:25:22;7.67;;;6.90;;
11616;SDS011;5864;52.998;9.068;2023-05-10T08:28:07;7.03;;;6.33;;
11616;SDS011;5864;52.998;9.068;2023-05-10T08:30:54;6.90;;;6.20;;
11616;SDS011;5864;52.998;9.068;2023-05-10T08:33:40;7.63;;;6.50;;
11616;SDS011;5864;52.998;9.068;2023-05-10T08:36:25;6.20;;;5.63;;
11616;SDS011;5864;52.998;9.068;2023-05-10T08:39:11;8.90;;;6.10;;
11616;SDS011;5864;52.998;9.068;2023-05-10T08:41:57;8.23;;;6.20;;
11616;SDS011;5864;52.998;9.068;2023-05-10T08:44:47;6.27;;;5.70;;
11616;SDS011;5864;52.998;9.068;2023-05-10T08:47:35;7.13;;;6.47;;
11616;SDS011;5864;52.998;9.068;2023-05-10T08:50:23;7.03;;;6.10;;
11616;SDS011;5864;52.998;9.068;2023-05-10T08:53:10;6.40;;;5.80;;
11616;SDS011;5864;52.998;9.068;2023-05-10T08:55:56;6.27;;;5.67;;
11616;SDS011;5864;52.998;9.068;2023-05-10T08:58:42;6.87;;;6.17;;
11616;SDS011;5864;52.998;9.068;2023-05-10T09:01:29;6.10;;;5.60;;
11616;SDS011;5864;52.998;9.068;2023-05-10T09:04:18;6.13;;;5.60;;
11616;SDS011;5864;52.998;9.068;2023-05-10T09:07:04;6.13;;;5.63;;
11616;SDS011;5864;52.998;9.068;2023-05-10T09:09:50;4.83;;;4.43;;
11616;SDS011;5864;52.998;9.068;2023-05-10T09:12:36;4.50;;;4.10;;
11616;SDS011;5864;52.998;9.068;2023-05-10T09:15:23;4.30;;;3.90;;
11616;SDS011;5864;52.998;9.068;2023-05-10T09:18:08;3.50;;;3.20;;
11616;SDS011;5864;52.998;9.068;2023-05-10T09:20:55;3.73;;;3.43;;
11616;SDS011;5864;52.998;9.068;2023-05-10T09:23:42;3.37;;;3.10;;
11616;SDS011;5864;52.998;9.068;2023-05-10T09:26:29;3.07;;;2.67;;
11616;SDS011;5864;52.998;9.068;2023-05-10T09:29:15;2.40;;;2.27;;
11616;SDS011;5864;52.998;9.068;2023-05-10T09:32:00;2.47;;;2.27;;
11616;SDS011;5864;52.998;9.068;2023-05-10T09:34:46;2.53;;;2.33;;
11616;SDS011;5864;52.998;9.068;2023-05-10T09:37:36;4.27;;;2.80;;
11616;SDS011;5864;52.998;9.068;2023-05-10T09:40:25;3.00;;;2.43;;
11616;SDS011;5864;52.998;9.068;2023-05-10T09:43:11;2.37;;;2.10;;
11616;SDS011;5864;52.998;9.068;2023-05-10T09:45:58;2.57;;;2.00;;
11616;SDS011;5864;52.998;9.068;2023-05-10T09:48:44;2.23;;;1.77;;
11616;SDS011;5864;52.998;9.068;2023-05-10T09:51:31;2.10;;;1.90;;
11616;SDS011;5864;52.998;9.068;2023-05-10T09:54:18;2.43;;;1.80;;
11616;SDS011;5864;52.998;9.068;2023-05-10T09:57:04;2.27;;;1.90;;
11616;SDS011;5864;52.998;9.068;2023-05-10T09:59:50;2.87;;;2.30;;
11616;SDS011;5864;52.998;9.068;2023-05-10T10:02:38;2.73;;;2.40;;
11616;SDS011;5864;52.998;9.068;2023-05-10T10:05:27;2.10;;;1.80;;
11616;SDS011;5864;52.998;9.068;2023-05-10T10:08:13;2.20;;;2.00;;
11616;SDS011;5864;52.998;9.068;2023-05-10T10:11:01;2.40;;;2.20;;
11616;SDS011;5864;52.998;9.068;2023-05-10T10:13:48;2.30;;;2.10;;
11616;SDS011;5864;52.998;9.068;2023-05-10T10:16:33;2.50;;;2.30;;
11616;SDS011;5864;52.998;9.068;2023-05-10T10:19:19;3.17;;;2.63;;
11616;SDS011;5864;52.998;9.068;2023-05-10T10:22:05;2.23;;;2.03;;
11616;SDS011;5864;52.998;9.068;2023-05-10T10:24:50;2.33;;;2.10;;
11616;SDS011;5864;52.998;9.068;2023-05-10T10:27:39;2.63;;;2.03;;
11616;SDS011;5864;52.998;9.068;2023-05-10T10:30:31;2.47;;;2.00;;
11616;SDS011;5864;52.998;9.068;2023-05-10T10:33:29;2.80;;;2.13;;
11616;SDS011;5864;52.998;9.068;2023-05-10T10:36:21;2.70;;;2.40;;
11616;SDS011;5864;52.998;9.068;2023-05-10T10:39:08;2.83;;;2.47;;
11616;SDS011;5864;52.998;9.068;2023-05-10T10:41:55;4.47;;;2.67;;
11616;SDS011;5864;52.998;9.068;2023-05-10T10:44:43;5.00;;;2.60;;
11616;SDS011;5864;52.998;9.068;2023-05-10T10:47:28;2.97;;;2.67;;
11616;SDS011;5864;52.998;9.068;2023-05-10T10:50:17;3.37;;;2.77;;
11616;SDS011;5864;52.998;9.068;2023-05-10T10:53:10;4.17;;;2.60;;
11616;SDS011;5864;52.998;9.068;2023-05-10T10:56:05;4.33;;;2.50;;
11616;SDS011;5864;52.998;9.068;2023-05-10T10:58:52;3.73;;;2.60;;
11616;SDS011;5864;52.998;9.068;2023-05-10T11:01:46;3.87;;;2.63;;
11616;SDS011;5864;52.998;9.068;2023-05-10T11:04:41;2.47;;;2.27;;
11616;SDS011;5864;52.998;9.068;2023-05-10T11:07:30;3.67;;;2.43;;
11616;SDS011;5864;52.998;9.068;2023-05-10T11:10:18;2.73;;;1.80;;
11616;SDS011;5864;52.998;9.068;2023-05-10T11:13:04;4.03;;;2.20;;
11616;SDS011;5864;52.998;9.068;2023-05-10T11:15:50;3.53;;;2.37;;
11616;SDS011;5864;52.998;9.068;2023-05-10T11:18:37;4.03;;;2.50;;
11616;SDS011;5864;52.998;9.068;2023-05-10T11:21:23;2.60;;;2.20;;
11616;SDS011;5864;52.998;9.068;2023-05-10T11:24:12;3.37;;;2.67;;
11616;SDS011;5864;52.998;9.068;2023-05-10T11:26:59;3.20;;;2.60;;
11616;SDS011;5864;52.998;9.068;2023-05-10T11:29:44;2.47;;;2.20;;
11616;SDS011;5864;52.998;9.068;2023-05-10T11:32:30;2.10;;;1.83;;
11616;SDS011;5864;52.998;9.068;2023-05-10T11:35:17;2.77;;;1.90;;
11616;SDS011;5864;52.998;9.068;2023-05-10T11:38:04;2.70;;;1.80;;
11616;SDS011;5864;52.998;9.068;2023-05-10T11:40:51;3.27;;;1.90;;
11616;SDS011;5864;52.998;9.068;2023-05-10T11:43:38;2.43;;;2.23;;
11616;SDS011;5864;52.998;9.068;2023-05-10T11:46:25;3.07;;;2.30;;
11616;SDS011;5864;52.998;9.068;2023-05-10T11:49:11;3.33;;;2.30;;
11616;SDS011;5864;52.998;9.068;2023-05-10T11:52:04;3.30;;;2.60;;
11616;SDS011;5864;52.998;9.068;2023-05-10T11:54:51;3.97;;;2.27;;
11616;SDS011;5864;52.998;9.068;2023-05-10T11:57:36;3.80;;;2.00;;
11616;SDS011;5864;52.998;9.068;2023-05-10T12:00:24;3.23;;;2.20;;
11616;SDS011;5864;52.998;9.068;2023-05-10T12:03:10;3.77;;;1.60;;
11616;SDS011;5864;52.998;9.068;2023-05-10T12:05:56;1.73;;;1.40;;
11616;SDS011;5864;52.998;9.068;2023-05-10T12:08:45;1.53;;;1.43;;
11616;SDS011;5864;52.998;9.068;2023-05-10T12:11:36;1.63;;;1.53;;
11616;SDS011;5864;52.998;9.068;2023-05-10T12:14:23;2.37;;;1.30;;
11616;SDS011;5864;52.998;9.068;2023-05-10T12:17:11;1.97;;;1.37;;
11616;SDS011;5864;52.998;9.068;2023-05-10T12:19:58;1.53;;;1.30;;
11616;SDS011;5864;52.998;9.068;2023-05-10T12:22:49;1.40;;;1.30;;
11616;SDS011;5864;52.998;9.068;2023-05-10T12:25:37;1.50;;;1.40;;
11616;SDS011;5864;52.998;9.068;2023-05-10T12:28:23;1.53;;;1.37;;
11616;SDS011;5864;52.998;9.068;2023-05-10T12:31:10;1.20;;;1.10;;
11616;SDS011;5864;52.998;9.068;2023-05-10T12:33:55;1.20;;;1.10;;
11616;SDS011;5864;52.998;9.068;2023-05-10T12:36:41;1.30;;;1.20;;
11616;SDS011;5864;52.998;9.068;2023-05-10T12:39:37;1.00;;;1.00;;
11616;SDS011;5864;52.998;9.068;2023-05-10T12:42:25;0.93;;;0.70;;
11616;SDS011;5864;52.998;9.068;2023-05-10T12:45:11;0.70;;;0.70;;
11616;SDS011;5864;52.998;9.068;2023-05-10T12:47:56;0.63;;;0.63;;
11616;SDS011;5864;52.998;9.068;2023-05-10T12:50:42;0.77;;;0.77;;
11616;SDS011;5864;52.998;9.068;2023-05-10T12:53:29;0.60;;;0.60;;
11616;SDS011;5864;52.998;9.068;2023-05-10T12:56:15;0.80;;;0.80;;
11616;SDS011;5864;52.998;9.068;2023-05-10T12:59:01;0.73;;;0.73;;
11616;SDS011;5864;52.998;9.068;2023-05-10T13:01:48;0.70;;;0.70;;
11616;SDS011;5864;52.998;9.068;2023-05-10T13:04:33;0.97;;;0.97;;
11616;SDS011;5864;52.998;9.068;2023-05-10T13:07:21;0.90;;;0.90;;
11616;SDS011;5864;52.998;9.068;2023-05-10T13:10:06;2.07;;;1.10;;
11616;SDS011;5864;52.998;9.068;2023-05-10T13:12:52;2.63;;;1.00;;
11616;SDS011;5864;52.998;9.068;2023-05-10T13:15:39;1.40;;;1.30;;
11616;SDS011;5864;52.998;9.068;2023-05-10T13:18:24;1.23;;;1.13;;
11616;SDS011;5864;52.998;9.068;2023-05-10T13:21:10;1.00;;;1.00;;
11616;SDS011;5864;52.998;9.068;2023-05-10T13:23:56;0.90;;;0.90;;
11616;SDS011;5864;52.998;9.068;2023-05-10T13:26:42;1.03;;;1.00;;
11616;SDS011;5864;52.998;9.068;2023-05-10T13:29:27;1.00;;;0.90;;
11616;SDS011;5864;52.998;9.068;2023-05-10T13:32:14;0.77;;;0.77;;
11616;SDS011;5864;52.998;9.068;2023-05-10T13:35:01;0.70;;;0.70;;
11616;SDS011;5864;52.998;9.068;2023-05-10T13:37:47;2.13;;;0.77;;
11616;SDS011;5864;52.998;9.068;2023-05-10T13:40:33;0.77;;;0.77;;
11616;SDS011;5864;52.998;9.068;2023-05-10T13:43:19;1.20;;;0.80;;
11616;SDS011;5864;52.998;9.068;2023-05-10T13:46:06;1.27;;;0.80;;
11616;SDS011;5864;52.998;9.068;2023-05-10T13:48:52;0.70;;;0.70;;
11616;SDS011;5864;52.998;9.068;2023-05-10T13:51:39;0.80;;;0.80;;
11616;SDS011;5864;52.998;9.068;2023-05-10T13:54:24;1.87;;;0.77;;
11616;SDS011;5864;52.998;9.068;2023-05-10T13:57:14;0.80;;;0.80;;
11616;SDS011;5864;52.998;9.068;2023-05-10T14:00:00;0.87;;;0.83;;
11616;SDS011;5864;52.998;9.068;2023-05-10T14:02:46;1.53;;;0.80;;
11616;SDS011;5864;52.998;9.068;2023-05-10T14:05:33;0.83;;;0.83;;
11616;SDS011;5864;52.998;9.068;2023-05-10T14:08:18;0.90;;;0.90;;
11616;SDS011;5864;52.998;9.068;2023-05-10T14:11:04;0.90;;;0.90;;
11616;SDS011;5864;52.998;9.068;2023-05-10T14:13:50;1.50;;;1.20;;
11616;SDS011;5864;52.998;9.068;2023-05-10T14:16:35;1.13;;;1.03;;
11616;SDS011;5864;52.998;9.068;2023-05-10T14:19:21;1.17;;;1.10;;
11616;SDS011;5864;52.998;9.068;2023-05-10T14:22:08;1.37;;;1.27;;
11616;SDS011;5864;52.998;9.068;2023-05-10T14:24:54;1.30;;;1.20;;
11616;SDS011;5864;52.998;9.068;2023-05-10T14:27:41;1.20;;;1.10;;
11616;SDS011;5864;52.998;9.068;2023-05-10T14:30:26;1.50;;;1.40;;
11616;SDS011;5864;52.998;9.068;2023-05-10T14:33:12;1.40;;;1.30;;
11616;SDS011;5864;52.998;9.068;2023-05-10T14:35:58;1.30;;;1.20;;
11616;SDS011;5864;52.998;9.068;2023-05-10T14:38:45;2.50;;;1.27;;
11616;SDS011;5864;52.998;9.068;2023-05-10T14:41:30;1.30;;;1.20;;
11616;SDS011;5864;52.998;9.068;2023-05-10T14:44:16;2.80;;;1.30;;
11616;SDS011;5864;52.998;9.068;2023-05-10T14:47:02;1.03;;;1.03;;
11616;SDS011;5864;52.998;9.068;2023-05-10T14:49:48;1.53;;;0.90;;
11616;SDS011;5864;52.998;9.068;2023-05-10T14:52:33;1.83;;;1.40;;
11616;SDS011;5864;52.998;9.068;2023-05-10T14:55:21;2.37;;;1.57;;
11616;SDS011;5864;52.998;9.068;2023-05-10T14:58:07;1.07;;;1.07;;
11616;SDS011;5864;52.998;9.068;2023-05-10T15:00:52;1.40;;;1.30;;
11616;SDS011;5864;52.998;9.068;2023-05-10T15:03:38;1.30;;;1.20;;
11616;SDS011;5864;52.998;9.068;2023-05-10T15:06:29;1.87;;;1.10;;
11616;SDS011;5864;52.998;9.068;2023-05-10T15:09:16;1.10;;;1.10;;
11616;SDS011;5864;52.998;9.068;2023-05-10T15:12:03;1.33;;;1.23;;
11616;SDS011;5864;52.998;9.068;2023-05-10T15:14:49;1.20;;;1.10;;
11616;SDS011;5864;52.998;9.068;2023-05-10T15:17:34;1.50;;;1.40;;
11616;SDS011;5864;52.998;9.068;2023-05-10T15:20:20;1.50;;;1.40;;
11616;SDS011;5864;52.998;9.068;2023-05-10T15:23:06;1.30;;;1.20;;
11616;SDS011;5864;52.998;9.068;2023-05-10T15:25:51;1.63;;;1.30;;
11616;SDS011;5864;52.998;9.068;2023-05-10T15:28:40;1.67;;;1.40;;
11616;SDS011;5864;52.998;9.068;2023-05-10T15:31:26;1.00;;;1.00;;
11616;SDS011;5864;52.998;9.068;2023-05-10T15:34:11;1.20;;;1.10;;
11616;SDS011;5864;52.998;9.068;2023-05-10T15:36:57;1.20;;;1.10;;
11616;SDS011;5864;52.998;9.068;2023-05-10T15:39:43;1.53;;;1.43;;
11616;SDS011;5864;52.998;9.068;2023-05-10T15:42:29;3.10;;;1.70;;
11616;SDS011;5864;52.998;9.068;2023-05-10T15:45:16;1.53;;;1.43;;
11616;SDS011;5864;52.998;9.068;2023-05-10T15:48:02;1.97;;;1.73;;
11616;SDS011;5864;52.998;9.068;2023-05-10T15:50:48;1.73;;;1.63;;
11616;SDS011;5864;52.998;9.068;2023-05-10T15:53:33;2.13;;;1.70;;
11616;SDS011;5864;52.998;9.068;2023-05-10T15:56:19;1.90;;;1.60;;
11616;SDS011;5864;52.998;9.068;2023-05-10T15:59:04;2.33;;;1.70;;
11616;SDS011;5864;52.998;9.068;2023-05-10T16:01:52;1.80;;;1.60;;
11616;SDS011;5864;52.998;9.068;2023-05-10T16:04:38;1.30;;;1.20;;
11616;SDS011;5864;52.998;9.068;2023-05-10T16:07:24;1.50;;;1.40;;
11616;SDS011;5864;52.998;9.068;2023-05-10T16:10:10;2.43;;;1.20;;
11616;SDS011;5864;52.998;9.068;2023-05-10T16:12:55;2.13;;;1.70;;
11616;SDS011;5864;52.998;9.068;2023-05-10T16:15:42;1.80;;;1.70;;
11616;SDS011;5864;52.998;9.068;2023-05-10T16:18:29;2.10;;;1.90;;
11616;SDS011;5864;52.998;9.068;2023-05-10T16:21:14;2.77;;;1.50;;
11616;SDS011;5864;52.998;9.068;2023-05-10T16:24:00;5.50;;;1.70;;
11616;SDS011;5864;52.998;9.068;2023-05-10T16:26:46;2.70;;;1.87;;
11616;SDS011;5864;52.998;9.068;2023-05-10T16:29:32;2.67;;;1.90;;
11616;SDS011;5864;52.998;9.068;2023-05-10T16:32:17;2.90;;;1.90;;
11616;SDS011;5864;52.998;9.068;2023-05-10T16:35:05;2.40;;;2.10;;
11616;SDS011;5864;52.998;9.068;2023-05-10T16:37:51;2.20;;;1.83;;
11616;SDS011;5864;52.998;9.068;2023-05-10T16:40:37;1.90;;;1.70;;
11616;SDS011;5864;52.998;9.068;2023-05-10T16:43:22;2.77;;;1.70;;
11616;SDS011;5864;52.998;9.068;2023-05-10T16:46:08;1.90;;;1.70;;
11616;SDS011;5864;52.998;9.068;2023-05-10T16:48:54;1.63;;;1.50;;
11616;SDS011;5864;52.998;9.068;2023-05-10T16:51:44;1.77;;;1.30;;
11616;SDS011;5864;52.998;9.068;2023-05-10T16:54:29;1.23;;;1.13;;
11616;SDS011;5864;52.998;9.068;2023-05-10T16:57:14;1.20;;;1.10;;
11616;SDS011;5864;52.998;9.068;2023-05-10T17:00:00;1.20;;;1.10;;
11616;SDS011;5864;52.998;9.068;2023-05-10T17:02:46;1.30;;;1.20;;